RJST(METAR)
12/16 16:00
METAR RJST 160700Z 33005KT 9999 FEW015 SCT220 06/02 Q1009 RMK 1CU015
A2980=
戻る
トップページへ戻る
IMOC Co,.Ltd.